Time;durP1;ratioP1;P1;durP2;ratioP2;P2;SDS_P1;SDS_P2;PMS_P1;PMS_P2;Temp;Humidity;BMP_temperature;BMP_pressure;BME280_temperature;BME280_humidity;BME280_pressure;Samples;Min_cycle;Max_cycle;Signal;HPM_P1;HPM_P2
2022/08/29 00:01:11;;;;;;;3.75;3.45;;;;;;;;;;5099649;28;20066;-64
2022/08/29 00:03:37;;;;;;;3.10;2.90;;;;;;;;;;5031998;28;20061;-64
2022/08/29 00:06:03;;;;;;;3.72;3.42;;;;;;;;;;5031804;28;20029;-64
2022/08/29 00:08:28;;;;;;;4.07;3.35;;;;;;;;;;5099737;28;20406;-64
2022/08/29 00:10:54;;;;;;;3.50;3.20;;;;;;;;;;5031330;28;20037;-63
2022/08/29 00:13:20;;;;;;;3.45;3.08;;;;;;;;;;5031445;28;20018;-64
2022/08/29 00:15:49;;;;;;;5.75;3.20;;;;;;;;;;5031202;28;20024;-64
2022/08/29 00:18:15;;;;;;;3.20;3.00;;;;;;;;;;5031511;28;20100;-64
2022/08/29 00:20:41;;;;;;;3.55;3.35;;;;;;;;;;5031490;28;20034;-64
2022/08/29 00:23:07;;;;;;;7.13;3.63;;;;;;;;;;5031137;28;20070;-64
2022/08/29 00:25:32;;;;;;;3.13;3.00;;;;;;;;;;5031356;28;20041;-64
2022/08/29 00:27:58;;;;;;;3.15;2.95;;;;;;;;;;5031628;28;20014;-65
2022/08/29 00:30:24;;;;;;;3.55;3.25;;;;;;;;;;5031336;28;20468;-65
2022/08/29 00:32:49;;;;;;;3.60;3.35;;;;;;;;;;5031029;28;20021;-64
2022/08/29 00:35:18;;;;;;;3.65;3.38;;;;;;;;;;5030908;28;20045;-65
2022/08/29 00:37:44;;;;;;;4.43;2.78;;;;;;;;;;5031202;28;20037;-64
2022/08/29 00:40:11;;;;;;;4.05;3.65;;;;;;;;;;5030897;28;20074;-64
2022/08/29 00:42:37;;;;;;;3.95;3.65;;;;;;;;;;5099182;28;20018;-65
2022/08/29 00:45:04;;;;;;;4.25;3.97;;;;;;;;;;5031111;28;20040;-65
2022/08/29 00:47:31;;;;;;;4.38;3.90;;;;;;;;;;5031138;28;20104;-64
2022/08/29 00:49:57;;;;;;;4.10;3.80;;;;;;;;;;5031312;28;20029;-64
2022/08/29 00:55:01;;;;;;;4.78;4.38;;;;;;;;;;4987583;28;20066;-64
2022/08/29 00:57:28;;;;;;;5.57;4.35;;;;;;;;;;4972044;28;20366;-64
2022/08/29 00:59:54;;;;;;;4.22;3.92;;;;;;;;;;4972061;28;20023;-64
2022/08/29 01:02:19;;;;;;;4.57;4.28;;;;;;;;;;4972793;28;20019;-64
2022/08/29 01:04:45;;;;;;;5.45;4.05;;;;;;;;;;4972204;28;20053;-64
2022/08/29 01:07:11;;;;;;;7.18;4.72;;;;;;;;;;5038626;28;20023;-64
2022/08/29 01:09:37;;;;;;;5.68;5.22;;;;;;;;;;4972922;28;20035;-65
2022/08/29 01:12:16;;;;;;;6.93;5.50;;;;;;;;;;4975405;28;20121;-64
2022/08/29 01:14:52;;;;;;;6.00;5.18;;;;;;;;;;5042838;28;20027;-65
2022/08/29 01:17:20;;;;;;;6.63;5.30;;;;;;;;;;5042546;28;20119;-65
2022/08/29 01:19:51;;;;;;;5.82;5.32;;;;;;;;;;4975498;28;20097;-64
2022/08/29 01:22:33;;;;;;;6.95;6.25;;;;;;;;;;5058955;28;20026;-64
2022/08/29 01:25:00;;;;;;;5.80;5.30;;;;;;;;;;5042347;28;20138;-64
2022/08/29 01:27:28;;;;;;;8.70;6.13;;;;;;;;;;5042214;28;20058;-63
2022/08/29 01:29:54;;;;;;;11.00;6.65;;;;;;;;;;4975319;28;20034;-64
2022/08/29 01:32:22;;;;;;;8.25;7.45;;;;;;;;;;4975093;28;20382;-64
2022/08/29 01:34:47;;;;;;;8.00;7.20;;;;;;;;;;4975203;28;20112;-64
2022/08/29 01:37:13;;;;;;;6.20;5.68;;;;;;;;;;4975063;28;20447;-64
2022/08/29 01:39:40;;;;;;;6.90;6.20;;;;;;;;;;5042057;28;20038;-64
2022/08/29 01:42:14;;;;;;;7.65;6.68;;;;;;;;;;4975459;28;20029;-64
2022/08/29 01:44:39;;;;;;;9.32;6.90;;;;;;;;;;4974788;28;20027;-64
2022/08/29 01:47:06;;;;;;;7.05;6.35;;;;;;;;;;4974873;28;20027;-63
2022/08/29 01:49:32;;;;;;;7.88;7.18;;;;;;;;;;4975024;28;20031;-64
2022/08/29 01:51:58;;;;;;;7.82;7.03;;;;;;;;;;4974679;28;20030;-65
2022/08/29 01:54:23;;;;;;;7.45;6.75;;;;;;;;;;4974596;28;20486;-64
2022/08/29 01:56:50;;;;;;;7.20;6.38;;;;;;;;;;4974925;28;20462;-64
2022/08/29 01:59:17;;;;;;;7.68;6.95;;;;;;;;;;4974829;28;20058;-64
2022/08/29 02:01:49;;;;;;;5.95;5.40;;;;;;;;;;4974557;28;20049;-64
2022/08/29 02:04:14;;;;;;;9.15;7.10;;;;;;;;;;4974758;28;20058;-64
2022/08/29 02:06:39;;;;;;;11.63;7.05;;;;;;;;;;4974614;28;20062;-64
2022/08/29 02:09:05;;;;;;;9.18;6.32;;;;;;;;;;4975184;28;20100;-64
2022/08/29 02:11:31;;;;;;;8.10;6.75;;;;;;;;;;4974576;28;20476;-64
2022/08/29 02:13:57;;;;;;;9.02;6.95;;;;;;;;;;4974305;28;20045;-65
2022/08/29 02:16:23;;;;;;;10.57;5.85;;;;;;;;;;4974693;28;20023;-65
2022/08/29 02:18:49;;;;;;;8.15;7.00;;;;;;;;;;4974611;28;20034;-64
2022/08/29 02:21:17;;;;;;;7.68;6.20;;;;;;;;;;4973797;28;20144;-63
2022/08/29 02:23:43;;;;;;;9.80;6.85;;;;;;;;;;5041187;28;20041;-65
2022/08/29 02:26:08;;;;;;;11.23;7.43;;;;;;;;;;4974697;28;20014;-63
2022/08/29 02:28:35;;;;;;;9.38;7.32;;;;;;;;;;4974438;28;20092;-64
2022/08/29 02:31:00;;;;;;;7.95;7.15;;;;;;;;;;4974666;28;20054;-65
2022/08/29 02:33:26;;;;;;;12.15;7.50;;;;;;;;;;4974014;28;20038;-64
2022/08/29 02:35:52;;;;;;;10.68;7.75;;;;;;;;;;4974028;28;20519;-65
2022/08/29 02:38:17;;;;;;;8.00;6.93;;;;;;;;;;4974284;28;20027;-66
2022/08/29 02:40:43;;;;;;;10.40;8.48;;;;;;;;;;4974103;28;20030;-65
2022/08/29 02:43:09;;;;;;;12.25;6.95;;;;;;;;;;4974252;28;20100;-64
2022/08/29 02:45:35;;;;;;;10.30;8.63;;;;;;;;;;4973970;28;20098;-64
2022/08/29 02:48:04;;;;;;;6.88;6.28;;;;;;;;;;4974412;28;20039;-63
2022/08/29 02:50:30;;;;;;;7.22;6.55;;;;;;;;;;4974207;28;20037;-64
2022/08/29 02:52:55;;;;;;;11.98;8.32;;;;;;;;;;4974069;28;20525;-64
2022/08/29 02:55:22;;;;;;;9.38;7.35;;;;;;;;;;4973520;28;20080;-64
2022/08/29 02:57:47;;;;;;;7.55;6.35;;;;;;;;;;4973730;28;20105;-65
2022/08/29 03:00:16;;;;;;;9.93;6.78;;;;;;;;;;4974262;28;20098;-64
2022/08/29 03:02:42;;;;;;;8.90;7.90;;;;;;;;;;4973663;28;20034;-64
2022/08/29 03:05:07;;;;;;;8.43;6.82;;;;;;;;;;4974174;28;20080;-63
2022/08/29 03:07:32;;;;;;;6.95;6.28;;;;;;;;;;4973934;28;20042;-64
2022/08/29 03:09:58;;;;;;;7.80;7.00;;;;;;;;;;4973549;28;20485;-63
2022/08/29 03:12:23;;;;;;;6.78;6.13;;;;;;;;;;4973667;28;20062;-64
2022/08/29 03:14:49;;;;;;;6.82;6.22;;;;;;;;;;4973991;28;20023;-64
2022/08/29 03:17:14;;;;;;;8.80;7.00;;;;;;;;;;4973529;28;20500;-64
2022/08/29 03:19:39;;;;;;;8.50;6.93;;;;;;;;;;4973470;28;20420;-64
2022/08/29 03:22:05;;;;;;;7.50;6.70;;;;;;;;;;4973573;28;20053;-63
2022/08/29 03:24:33;;;;;;;8.38;6.93;;;;;;;;;;5040368;28;20019;-64
2022/08/29 03:26:58;;;;;;;6.20;5.50;;;;;;;;;;4973639;28;20034;-65
2022/08/29 03:29:24;;;;;;;6.82;6.13;;;;;;;;;;4973208;28;20023;-63
2022/08/29 03:31:50;;;;;;;8.43;6.35;;;;;;;;;;4973369;28;20031;-64
2022/08/29 03:34:15;;;;;;;6.30;5.75;;;;;;;;;;4971977;28;20428;-65
2022/08/29 03:36:40;;;;;;;9.00;5.50;;;;;;;;;;4973411;28;20031;-64
2022/08/29 03:39:06;;;;;;;5.20;4.70;;;;;;;;;;4973135;28;20024;-65
2022/08/29 03:41:31;;;;;;;5.35;4.55;;;;;;;;;;4973582;28;20037;-64
2022/08/29 03:43:59;;;;;;;5.65;4.82;;;;;;;;;;5039796;28;20042;-64
2022/08/29 03:46:24;;;;;;;5.18;4.70;;;;;;;;;;4973716;28;20523;-64
2022/08/29 03:48:52;;;;;;;5.60;5.15;;;;;;;;;;4973167;28;20027;-63
2022/08/29 03:51:18;;;;;;;6.63;6.05;;;;;;;;;;4973571;28;20023;-65
2022/08/29 03:53:43;;;;;;;6.90;6.30;;;;;;;;;;4972958;28;20445;-64
2022/08/29 03:56:11;;;;;;;7.40;6.70;;;;;;;;;;4972888;28;20535;-63
2022/08/29 03:58:37;;;;;;;8.32;7.15;;;;;;;;;;5039714;28;20493;-64
2022/08/29 04:01:02;;;;;;;5.93;5.28;;;;;;;;;;4972944;28;20031;-63
2022/08/29 04:03:28;;;;;;;8.35;7.55;;;;;;;;;;5039469;28;20038;-63
2022/08/29 04:05:56;;;;;;;9.30;8.30;;;;;;;;;;4972905;28;20180;-64
2022/08/29 04:08:22;;;;;;;8.30;7.50;;;;;;;;;;5039566;28;20389;-64
2022/08/29 04:10:47;;;;;;;9.45;7.85;;;;;;;;;;4972755;28;20114;-65
2022/08/29 04:13:13;;;;;;;10.80;7.85;;;;;;;;;;4972943;28;20413;-64
2022/08/29 04:15:40;;;;;;;10.68;8.52;;;;;;;;;;4972743;28;20402;-64
2022/08/29 04:18:07;;;;;;;8.88;7.75;;;;;;;;;;4972795;28;20026;-64
2022/08/29 04:20:34;;;;;;;8.43;7.40;;;;;;;;;;4972984;28;20117;-64
2022/08/29 04:22:59;;;;;;;9.48;7.28;;;;;;;;;;4972523;28;20072;-64
2022/08/29 04:25:26;;;;;;;9.98;8.50;;;;;;;;;;4971938;28;20038;-65
2022/08/29 04:27:52;;;;;;;9.77;7.70;;;;;;;;;;4972247;28;20038;-64
2022/08/29 04:30:19;;;;;;;11.15;8.75;;;;;;;;;;4971172;28;20027;-63
2022/08/29 04:32:44;;;;;;;9.15;8.13;;;;;;;;;;4971216;28;20081;-64
2022/08/29 04:35:11;;;;;;;9.48;7.38;;;;;;;;;;4971458;28;20034;-65
2022/08/29 04:37:37;;;;;;;13.38;8.55;;;;;;;;;;4971117;28;20043;-63
2022/08/29 04:40:02;;;;;;;11.27;8.45;;;;;;;;;;4970897;28;20065;-66
2022/08/29 04:42:28;;;;;;;13.00;8.38;;;;;;;;;;4971239;28;20065;-66
2022/08/29 04:44:54;;;;;;;11.38;8.07;;;;;;;;;;4971195;28;20088;-66
2022/08/29 04:47:21;;;;;;;9.88;7.85;;;;;;;;;;4971997;28;20394;-65
2022/08/29 04:49:48;;;;;;;12.85;8.10;;;;;;;;;;5038399;28;20038;-66
2022/08/29 04:52:14;;;;;;;9.75;7.38;;;;;;;;;;4971665;28;20031;-66
2022/08/29 04:54:39;;;;;;;10.05;8.07;;;;;;;;;;4972102;28;20050;-66
2022/08/29 04:57:05;;;;;;;10.38;6.30;;;;;;;;;;4972098;28;20023;-66
2022/08/29 04:59:31;;;;;;;10.02;7.90;;;;;;;;;;4972098;28;20026;-66
2022/08/29 05:01:56;;;;;;;11.23;8.10;;;;;;;;;;4971638;28;20027;-66
2022/08/29 05:04:22;;;;;;;7.82;7.05;;;;;;;;;;4971802;28;20450;-66
2022/08/29 05:06:49;;;;;;;8.85;6.85;;;;;;;;;;4971802;28;20054;-67
2022/08/29 05:09:14;;;;;;;8.98;7.65;;;;;;;;;;4971871;28;20077;-66
2022/08/29 05:11:40;;;;;;;7.95;7.00;;;;;;;;;;4971178;28;20366;-66
2022/08/29 05:14:05;;;;;;;7.85;7.07;;;;;;;;;;4971328;28;20076;-66
2022/08/29 05:16:35;;;;;;;9.73;7.65;;;;;;;;;;4971712;28;20019;-66
2022/08/29 05:19:02;;;;;;;9.60;7.68;;;;;;;;;;4971192;28;20027;-65
2022/08/29 05:21:30;;;;;;;10.07;7.13;;;;;;;;;;4970610;28;20012;-66
2022/08/29 05:23:57;;;;;;;7.82;7.03;;;;;;;;;;4971458;28;20039;-66
2022/08/29 05:26:23;;;;;;;7.65;7.03;;;;;;;;;;4971676;28;20100;-65
2022/08/29 05:28:48;;;;;;;8.40;6.70;;;;;;;;;;4971498;28;20026;-66
2022/08/29 05:31:14;;;;;;;7.25;6.43;;;;;;;;;;4971605;28;20447;-66
2022/08/29 05:33:40;;;;;;;7.07;6.30;;;;;;;;;;4970566;28;20042;-65
2022/08/29 05:36:06;;;;;;;6.90;6.00;;;;;;;;;;5037086;28;20030;-65
2022/08/29 05:38:32;;;;;;;7.65;6.50;;;;;;;;;;5037721;28;20031;-65
2022/08/29 05:40:57;;;;;;;6.97;6.38;;;;;;;;;;5037881;28;20601;-66
2022/08/29 05:43:23;;;;;;;8.13;6.25;;;;;;;;;;5053940;28;20092;-65
2022/08/29 05:45:48;;;;;;;7.70;6.32;;;;;;;;;;4970935;28;20374;-65
2022/08/29 05:48:16;;;;;;;6.68;6.07;;;;;;;;;;4970674;28;20029;-65
2022/08/29 05:50:42;;;;;;;6.88;6.28;;;;;;;;;;4970667;28;20528;-65
2022/08/29 05:53:08;;;;;;;7.25;6.28;;;;;;;;;;4970356;28;20027;-64
2022/08/29 05:55:38;;;;;;;9.82;6.15;;;;;;;;;;4970323;28;20035;-65
2022/08/29 05:58:03;;;;;;;6.22;5.45;;;;;;;;;;4973164;28;20088;-66
2022/08/29 06:00:29;;;;;;;5.45;5.03;;;;;;;;;;4973479;28;20432;-66
2022/08/29 06:02:54;;;;;;;6.15;5.55;;;;;;;;;;4973884;28;20031;-66
2022/08/29 06:05:21;;;;;;;8.05;5.72;;;;;;;;;;5040722;28;20113;-65
2022/08/29 06:07:47;;;;;;;5.88;5.38;;;;;;;;;;4973604;28;20092;-65
2022/08/29 06:10:12;;;;;;;7.03;4.97;;;;;;;;;;4973403;28;20023;-66
2022/08/29 06:12:38;;;;;;;5.75;5.25;;;;;;;;;;4973902;28;20058;-65
2022/08/29 06:15:03;;;;;;;6.53;5.72;;;;;;;;;;5040152;28;20027;-65
2022/08/29 06:17:29;;;;;;;7.22;5.05;;;;;;;;;;5040116;28;20039;-65
2022/08/29 06:19:54;;;;;;;5.55;5.05;;;;;;;;;;4973464;28;20027;-65
2022/08/29 06:22:21;;;;;;;5.72;5.20;;;;;;;;;;4973532;28;20108;-65
2022/08/29 06:24:46;;;;;;;5.68;5.20;;;;;;;;;;4973790;28;20054;-66
2022/08/29 06:27:13;;;;;;;5.50;4.95;;;;;;;;;;4973018;28;20111;-65
2022/08/29 06:29:38;;;;;;;5.60;5.07;;;;;;;;;;4973532;28;20025;-65
2022/08/29 06:32:04;;;;;;;6.53;5.45;;;;;;;;;;4973076;28;20042;-65
2022/08/29 06:34:29;;;;;;;5.13;4.72;;;;;;;;;;4973161;28;20107;-66
2022/08/29 06:36:55;;;;;;;8.88;5.63;;;;;;;;;;4973252;28;20474;-65
2022/08/29 06:39:21;;;;;;;5.28;4.78;;;;;;;;;;4973091;28;20470;-66
2022/08/29 06:41:46;;;;;;;6.85;5.15;;;;;;;;;;4973121;28;20031;-66
2022/08/29 06:44:12;;;;;;;6.05;5.18;;;;;;;;;;5040094;28;20394;-65
2022/08/29 06:46:42;;;;;;;5.20;4.45;;;;;;;;;;5040232;28;20126;-65
2022/08/29 06:49:11;;;;;;;5.45;4.95;;;;;;;;;;4973047;28;20042;-66
2022/08/29 06:51:37;;;;;;;7.47;4.47;;;;;;;;;;4972952;28;20027;-66
2022/08/29 06:54:04;;;;;;;4.85;4.45;;;;;;;;;;4972817;28;20130;-65
2022/08/29 06:56:30;;;;;;;5.80;4.05;;;;;;;;;;4972791;28;20088;-65
2022/08/29 06:58:55;;;;;;;5.72;5.05;;;;;;;;;;4972987;28;20031;-72
2022/08/29 07:01:22;;;;;;;5.63;5.03;;;;;;;;;;4972904;28;20471;-71
2022/08/29 07:03:47;;;;;;;7.13;4.60;;;;;;;;;;4972813;28;20039;-70
2022/08/29 07:06:13;;;;;;;4.93;4.43;;;;;;;;;;4972796;28;20478;-70
2022/08/29 07:08:39;;;;;;;5.53;4.25;;;;;;;;;;4972759;28;20027;-70
2022/08/29 07:11:04;;;;;;;4.55;4.13;;;;;;;;;;4972865;28;20026;-70
2022/08/29 07:13:30;;;;;;;4.70;4.00;;;;;;;;;;5039497;28;20574;-70
2022/08/29 07:15:56;;;;;;;4.57;4.15;;;;;;;;;;4972745;28;20090;-70
2022/08/29 07:18:22;;;;;;;5.85;4.30;;;;;;;;;;4972570;28;20409;-69
2022/08/29 07:20:48;;;;;;;5.10;3.72;;;;;;;;;;5039230;28;20015;-70
2022/08/29 07:23:13;;;;;;;4.38;3.55;;;;;;;;;;4972747;28;20457;-70
2022/08/29 07:25:38;;;;;;;5.93;3.40;;;;;;;;;;4972534;28;20033;-69
2022/08/29 07:28:04;;;;;;;7.05;3.55;;;;;;;;;;4972558;28;20035;-71
2022/08/29 07:30:30;;;;;;;5.65;3.53;;;;;;;;;;4972562;28;20027;-69
2022/08/29 07:32:55;;;;;;;5.55;3.53;;;;;;;;;;4972093;28;20038;-69
2022/08/29 07:35:21;;;;;;;3.42;3.20;;;;;;;;;;5039074;28;20022;-70
2022/08/29 07:37:46;;;;;;;4.18;3.30;;;;;;;;;;4972478;28;20457;-69
2022/08/29 07:40:13;;;;;;;6.05;3.13;;;;;;;;;;4972357;28;20072;-69
2022/08/29 07:42:38;;;;;;;4.45;3.08;;;;;;;;;;4972117;28;20474;-69
2022/08/29 07:45:05;;;;;;;5.10;3.30;;;;;;;;;;4972355;28;20031;-70
2022/08/29 07:47:31;;;;;;;4.05;3.50;;;;;;;;;;4971927;28;20058;-70
2022/08/29 07:49:58;;;;;;;5.20;4.00;;;;;;;;;;4972194;28;20072;-69
2022/08/29 07:52:23;;;;;;;4.72;3.78;;;;;;;;;;4972134;28;20042;-69
2022/08/29 07:54:49;;;;;;;4.82;3.40;;;;;;;;;;5050574;28;20600;-68
2022/08/29 07:57:17;;;;;;;4.30;3.90;;;;;;;;;;5053597;28;20056;-69
2022/08/29 07:59:43;;;;;;;5.70;3.85;;;;;;;;;;5053606;28;20067;-68
2022/08/29 08:02:09;;;;;;;5.55;3.92;;;;;;;;;;5053789;28;20025;-68
2022/08/29 08:04:35;;;;;;;4.93;4.22;;;;;;;;;;5053497;28;20083;-69
2022/08/29 08:07:01;;;;;;;5.72;4.15;;;;;;;;;;5052833;28;20048;-68
2022/08/29 08:09:26;;;;;;;6.88;3.80;;;;;;;;;;5052205;28;20102;-70
2022/08/29 08:11:52;;;;;;;5.20;3.55;;;;;;;;;;5053287;28;20036;-66
2022/08/29 08:14:17;;;;;;;4.90;4.20;;;;;;;;;;5053353;28;20017;-67
2022/08/29 08:16:43;;;;;;;5.82;3.95;;;;;;;;;;5053892;28;20021;-65
2022/08/29 08:19:08;;;;;;;4.70;3.90;;;;;;;;;;5051549;28;20025;-64
2022/08/29 08:21:34;;;;;;;5.70;3.70;;;;;;;;;;5053127;28;20032;-64
2022/08/29 08:24:00;;;;;;;6.03;3.97;;;;;;;;;;5053165;28;20506;-65
2022/08/29 08:26:25;;;;;;;4.65;3.67;;;;;;;;;;5053000;28;20031;-67
2022/08/29 08:28:52;;;;;;;4.13;3.55;;;;;;;;;;5052691;28;20087;-68
2022/08/29 08:31:19;;;;;;;5.60;3.70;;;;;;;;;;5052722;28;20438;-67
2022/08/29 08:33:44;;;;;;;5.07;4.75;;;;;;;;;;5052824;28;20028;-68
2022/08/29 08:36:14;;;;;;;5.20;4.70;;;;;;;;;;5052403;28;20025;-68
2022/08/29 08:38:39;;;;;;;4.85;4.43;;;;;;;;;;5053048;28;20390;-69
2022/08/29 08:41:30;;;;;;;4.85;4.45;;;;;;;;;;5052717;28;20017;-68
2022/08/29 08:43:57;;;;;;;4.30;3.90;;;;;;;;;;5049740;28;20420;-67
2022/08/29 08:46:39;;;;;;;5.07;4.68;;;;;;;;;;5053248;28;20044;-73
2022/08/29 08:49:09;;;;;;;6.47;4.47;;;;;;;;;;5052907;28;20025;-68
2022/08/29 08:54:02;;;;;;;4.38;3.70;;;;;;;;;;4971066;22;20065;-66
2022/08/29 08:56:31;;;;;;;5.03;4.25;;;;;;;;;;4936317;29;20058;-64
2022/08/29 08:59:02;;;;;;;4.00;3.63;;;;;;;;;;4952852;29;20548;-65
2022/08/29 09:01:37;;;;;;;5.80;3.65;;;;;;;;;;4952792;29;20486;-65
2022/08/29 09:04:22;;;;;;;4.85;3.58;;;;;;;;;;4952976;29;20028;-63
2022/08/29 09:06:54;;;;;;;10.20;3.97;;;;;;;;;;4952764;29;20038;-65
2022/08/29 09:09:25;;;;;;;11.07;4.38;;;;;;;;;;4952599;29;20490;-65
2022/08/29 09:11:53;;;;;;;69.65;15.93;;;;;;;;;;4953354;29;20035;-65
2022/08/29 09:14:37;;;;;;;4.63;3.55;;;;;;;;;;4951284;29;20054;-65
2022/08/29 09:17:05;;;;;;;7.72;3.55;;;;;;;;;;4952509;29;20059;-65
2022/08/29 09:19:31;;;;;;;4.00;3.70;;;;;;;;;;4952796;29;20074;-65
2022/08/29 09:22:06;;;;;;;5.72;3.58;;;;;;;;;;4952772;29;20020;-64
2022/08/29 09:24:39;;;;;;;6.57;4.13;;;;;;;;;;4952498;29;20039;-65
2022/08/29 09:27:05;;;;;;;3.60;3.30;;;;;;;;;;4952677;29;20088;-65
2022/08/29 09:29:30;;;;;;;361.52;70.55;;;;;;;;;;4952439;29;20467;-65
2022/08/29 09:32:10;;;;;;;99.35;24.08;;;;;;;;;;4955090;29;20035;-65
2022/08/29 09:34:40;;;;;;;11.07;4.85;;;;;;;;;;4955634;29;20462;-64
2022/08/29 09:37:21;;;;;;;3.72;3.40;;;;;;;;;;4955745;29;20020;-65
2022/08/29 09:39:54;;;;;;;16.48;5.43;;;;;;;;;;4956208;29;20032;-64
2022/08/29 09:42:21;;;;;;;3.67;3.33;;;;;;;;;;4955888;29;20110;-65
2022/08/29 09:44:55;;;;;;;4.70;3.67;;;;;;;;;;4954730;29;20125;-64
2022/08/29 09:47:23;;;;;;;3.95;3.38;;;;;;;;;;4955812;29;20042;-65
2022/08/29 09:50:18;;;;;;;6.97;3.25;;;;;;;;;;4955788;29;20463;-64
2022/08/29 09:52:52;;;;;;;3.70;3.13;;;;;;;;;;4953645;28;20043;-65
2022/08/29 09:55:20;;;;;;;2.85;2.65;;;;;;;;;;4955634;29;20153;-66
2022/08/29 09:57:49;;;;;;;3.53;3.22;;;;;;;;;;4955679;29;20074;-67
2022/08/29 10:00:16;;;;;;;7.72;3.42;;;;;;;;;;4955362;29;20031;-66
2022/08/29 10:02:42;;;;;;;3.80;3.50;;;;;;;;;;4955582;29;20473;-66
2022/08/29 10:05:11;;;;;;;3.67;3.17;;;;;;;;;;4954045;29;20032;-66
2022/08/29 10:07:47;;;;;;;3.22;2.83;;;;;;;;;;4955221;29;20024;-66
2022/08/29 10:10:17;;;;;;;2.70;2.50;;;;;;;;;;4955744;29;20386;-66
2022/08/29 10:12:42;;;;;;;;;;;;;;;;;;4955876;29;20113;-67
2022/08/29 10:15:15;;;;;;;3.47;3.17;;;;;;;;;;4955098;29;20009;-66
2022/08/29 10:20:45;;;;;;;30.65;9.35;;;;;;;;;;4955584;29;20062;-67
2022/08/29 10:23:19;;;;;;;4.28;3.20;;;;;;;;;;4954352;28;20085;-66
2022/08/29 10:25:45;;;;;;;2.65;2.45;;;;;;;;;;4955000;29;20043;-66
2022/08/29 10:28:15;;;;;;;14.35;5.30;;;;;;;;;;4955247;29;20367;-67
2022/08/29 10:30:55;;;;;;;16.08;5.10;;;;;;;;;;4955177;29;20054;-65
2022/08/29 10:33:33;;;;;;;2.72;2.53;;;;;;;;;;4954898;29;20118;-65
2022/08/29 10:36:05;;;;;;;4.32;2.97;;;;;;;;;;4955397;29;20070;-64
2022/08/29 10:38:43;;;;;;;4.07;2.65;;;;;;;;;;4955099;29;20019;-64
2022/08/29 10:41:27;;;;;;;3.15;2.10;;;;;;;;;;4954739;29;20035;-65
2022/08/29 10:44:11;;;;;;;2.30;2.10;;;;;;;;;;4954699;29;20035;-65
2022/08/29 10:47:00;;;;;;;3.05;1.90;;;;;;;;;;4955276;29;20114;-64
2022/08/29 10:49:25;;;;;;;2.25;2.08;;;;;;;;;;4959350;28;20139;-64
2022/08/29 10:51:51;;;;;;;2.72;2.53;;;;;;;;;;4954909;29;20106;-65
2022/08/29 10:54:17;;;;;;;3.25;2.60;;;;;;;;;;4954337;29;20058;-65
2022/08/29 10:56:44;;;;;;;3.45;2.13;;;;;;;;;;4954788;29;20035;-65
2022/08/29 10:59:29;;;;;;;2.95;1.90;;;;;;;;;;4953471;29;20034;-65
2022/08/29 11:02:07;;;;;;;2.92;2.42;;;;;;;;;;4953734;29;20024;-65
2022/08/29 11:04:40;;;;;;;2.70;2.50;;;;;;;;;;4953518;29;20459;-65
2022/08/29 11:07:05;;;;;;;2.80;2.35;;;;;;;;;;4953508;29;20502;-64
2022/08/29 11:09:42;;;;;;;2.50;2.30;;;;;;;;;;4953253;29;20057;-64
2022/08/29 11:12:14;;;;;;;3.33;2.60;;;;;;;;;;4953364;29;20314;-64
2022/08/29 11:14:44;;;;;;;3.20;2.28;;;;;;;;;;4953403;29;20350;-65
2022/08/29 11:17:10;;;;;;;;;;;;;;;;;;4953594;29;20403;-64
2022/08/29 11:19:53;;;;;;;4.07;3.20;;;;;;;;;;4953110;29;19951;-65
2022/08/29 11:22:24;;;;;;;4.35;2.60;;;;;;;;;;4952031;29;20370;-65
2022/08/29 11:25:03;;;;;;;3.88;2.63;;;;;;;;;;4953236;29;20437;-66
2022/08/29 11:27:43;;;;;;;3.35;2.75;;;;;;;;;;4953113;29;20035;-65
2022/08/29 11:30:16;;;;;;;3.97;2.55;;;;;;;;;;4953093;29;20027;-65
2022/08/29 11:32:50;;;;;;;3.03;2.83;;;;;;;;;;4952882;29;20039;-65
2022/08/29 11:35:35;;;;;;;3.88;2.50;;;;;;;;;;4952918;29;20027;-65
2022/08/29 11:38:19;;;;;;;3.58;2.42;;;;;;;;;;4953045;29;20070;-64
2022/08/29 11:41:03;;;;;;;3.53;3.05;;;;;;;;;;4951722;29;20024;-64
2022/08/29 11:43:34;;;;;;;2.78;2.58;;;;;;;;;;4952959;29;20513;-65
2022/08/29 11:46:01;;;;;;;3.75;3.03;;;;;;;;;;4952762;29;20019;-64
2022/08/29 11:48:30;;;;;;;3.45;3.13;;;;;;;;;;4952914;29;20015;-65
2022/08/29 11:50:56;;;;;;;2.90;2.70;;;;;;;;;;4952866;29;20438;-65
2022/08/29 11:53:32;;;;;;;3.60;2.67;;;;;;;;;;4952543;29;20047;-64
2022/08/29 11:56:11;;;;;;;4.07;2.45;;;;;;;;;;4952118;29;20036;-64
2022/08/29 11:58:38;;;;;;;2.72;2.53;;;;;;;;;;4952686;29;20059;-64
2022/08/29 12:01:05;;;;;;;3.88;2.60;;;;;;;;;;4952763;29;20098;-65
2022/08/29 12:03:33;;;;;;;4.57;2.58;;;;;;;;;;4952561;29;20070;-65
2022/08/29 12:06:17;;;;;;;4.60;3.15;;;;;;;;;;4952688;29;20156;-63
2022/08/29 12:08:52;;;;;;;2.40;2.20;;;;;;;;;;4952587;29;20020;-64
2022/08/29 12:11:18;;;;;;;2.63;2.42;;;;;;;;;;4952631;29;20028;-63
2022/08/29 12:13:43;;;;;;;4.70;2.67;;;;;;;;;;4952376;29;20485;-65
2022/08/29 12:16:09;;;;;;;4.78;2.65;;;;;;;;;;4952524;29;20383;-64
2022/08/29 12:18:39;;;;;;;11.05;4.07;;;;;;;;;;4952382;29;20429;-65
2022/08/29 12:21:28;;;;;;;3.42;2.83;;;;;;;;;;4952209;29;20026;-65
2022/08/29 12:23:53;;;;;;;7.40;3.10;;;;;;;;;;4956695;28;20051;-65
2022/08/29 12:26:37;;;;;;;5.38;2.75;;;;;;;;;;4952358;29;20030;-65
2022/08/29 12:29:03;;;;;;;3.28;2.83;;;;;;;;;;4952201;29;20028;-65
2022/08/29 12:31:41;;;;;;;4.25;3.05;;;;;;;;;;4935171;29;20030;-65
2022/08/29 12:34:33;;;;;;;3.83;2.30;;;;;;;;;;4952301;29;20031;-65
2022/08/29 12:37:09;;;;;;;6.00;2.65;;;;;;;;;;4935161;29;20028;-67
2022/08/29 12:39:49;;;;;;;5.25;2.90;;;;;;;;;;4951895;29;20035;-68
2022/08/29 12:42:18;;;;;;;3.47;2.63;;;;;;;;;;4952286;29;20031;-68
2022/08/29 12:44:46;;;;;;;4.15;2.55;;;;;;;;;;4952147;29;20024;-67
2022/08/29 12:47:25;;;;;;;4.80;2.72;;;;;;;;;;4950895;29;20042;-67
2022/08/29 12:49:54;;;;;;;3.30;2.60;;;;;;;;;;4952314;29;20043;-67
2022/08/29 12:52:22;;;;;;;5.93;3.05;;;;;;;;;;4952002;29;20044;-67
2022/08/29 12:54:47;;;;;;;5.45;2.90;;;;;;;;;;4952009;29;20080;-67
2022/08/29 12:57:21;;;;;;;3.92;2.75;;;;;;;;;;4952292;29;20094;-67
2022/08/29 12:59:48;;;;;;;5.70;2.97;;;;;;;;;;4952059;29;20172;-67
2022/08/29 13:02:25;;;;;;;3.15;2.47;;;;;;;;;;4951629;29;20019;-67
2022/08/29 13:04:50;;;;;;;4.40;2.28;;;;;;;;;;4950805;29;20104;-68
2022/08/29 13:07:16;;;;;;;4.50;2.17;;;;;;;;;;4950926;29;20160;-67
2022/08/29 13:09:43;;;;;;;2.47;2.28;;;;;;;;;;4951956;29;20051;-66
2022/08/29 13:12:09;;;;;;;2.65;2.13;;;;;;;;;;4951910;29;20030;-68
2022/08/29 13:14:51;;;;;;;3.45;2.55;;;;;;;;;;4950266;29;20126;-69
2022/08/29 13:17:18;;;;;;;4.07;2.30;;;;;;;;;;4950552;29;20035;-68
2022/08/29 13:20:03;;;;;;;4.55;2.40;;;;;;;;;;4951766;29;20440;-65
2022/08/29 13:22:30;;;;;;;3.78;2.33;;;;;;;;;;4951139;29;20467;-65
2022/08/29 13:25:04;;;;;;;4.60;3.00;;;;;;;;;;4951569;29;20111;-65
2022/08/29 13:27:30;;;;;;;3.58;2.40;;;;;;;;;;4951432;28;20038;-65
2022/08/29 13:29:59;;;;;;;6.43;2.50;;;;;;;;;;4950675;29;20023;-65
2022/08/29 13:32:25;;;;;;;2.72;2.53;;;;;;;;;;4951627;29;20036;-64
2022/08/29 13:35:11;;;;;;;5.63;2.25;;;;;;;;;;4951356;29;20039;-66
2022/08/29 13:37:38;;;;;;;4.05;3.00;;;;;;;;;;4957791;28;20165;-64
2022/08/29 13:40:22;;;;;;;2.80;2.28;;;;;;;;;;4951127;29;20021;-63
2022/08/29 13:42:47;;;;;;;3.95;1.92;;;;;;;;;;4951444;29;20027;-65
2022/08/29 13:45:20;;;;;;;3.30;2.17;;;;;;;;;;4951485;29;20385;-65
2022/08/29 13:47:50;;;;;;;2.72;2.50;;;;;;;;;;4951504;29;20471;-64
2022/08/29 13:50:15;;;;;;;;;;;;;;;;;;4952507;29;20023;-66
2022/08/29 13:52:41;;;;;;;3.35;2.28;;;;;;;;;;4951397;29;20373;-66
2022/08/29 13:55:08;;;;;;;1.85;1.70;;;;;;;;;;4951911;29;20043;-65
2022/08/29 13:57:34;;;;;;;5.07;2.20;;;;;;;;;;4951922;29;20418;-66
2022/08/29 14:00:00;;;;;;;4.35;2.45;;;;;;;;;;4951573;29;20030;-65
2022/08/29 14:02:26;;;;;;;4.05;2.33;;;;;;;;;;4950247;29;20031;-68
2022/08/29 14:04:51;;;;;;;3.42;2.30;;;;;;;;;;4934728;29;20035;-65
2022/08/29 14:07:19;;;;;;;3.08;2.20;;;;;;;;;;4934813;29;20049;-65
2022/08/29 14:09:45;;;;;;;2.83;1.92;;;;;;;;;;4950866;29;20043;-64
2022/08/29 14:12:11;;;;;;;2.60;1.70;;;;;;;;;;4950911;29;20035;-65
2022/08/29 14:14:37;;;;;;;3.03;1.67;;;;;;;;;;4951119;29;20035;-66
2022/08/29 14:17:03;;;;;;;4.72;2.00;;;;;;;;;;4933968;29;20019;-65
2022/08/29 14:19:29;;;;;;;4.28;2.05;;;;;;;;;;4936512;29;20077;-64
2022/08/29 14:21:57;;;;;;;3.35;1.92;;;;;;;;;;4954291;29;20422;-65
2022/08/29 14:24:24;;;;;;;3.00;2.00;;;;;;;;;;4954161;29;20410;-64
2022/08/29 14:26:49;;;;;;;3.13;1.80;;;;;;;;;;4954214;29;20080;-65
2022/08/29 14:29:15;;;;;;;3.83;2.00;;;;;;;;;;4954247;29;20122;-66
2022/08/29 14:31:40;;;;;;;2.88;1.85;;;;;;;;;;4952924;29;20498;-65
2022/08/29 14:34:06;;;;;;;4.78;2.30;;;;;;;;;;4954021;29;20030;-65
2022/08/29 14:36:32;;;;;;;2.35;1.80;;;;;;;;;;4954077;29;20463;-65
2022/08/29 14:38:57;;;;;;;2.50;1.80;;;;;;;;;;4954163;29;20467;-66
2022/08/29 14:41:24;;;;;;;3.50;2.13;;;;;;;;;;4954013;29;20030;-65
2022/08/29 14:43:49;;;;;;;4.70;2.17;;;;;;;;;;4954028;29;20441;-65
2022/08/29 14:46:16;;;;;;;3.35;2.00;;;;;;;;;;4953973;29;20031;-64
2022/08/29 14:48:41;;;;;;;4.30;1.88;;;;;;;;;;4936761;29;20402;-65
2022/08/29 14:51:06;;;;;;;4.68;1.75;;;;;;;;;;4953744;29;20023;-65
2022/08/29 14:53:32;;;;;;;2.35;1.77;;;;;;;;;;4953591;29;20063;-65
2022/08/29 14:55:58;;;;;;;3.90;1.92;;;;;;;;;;4953761;29;20079;-65
2022/08/29 14:58:24;;;;;;;6.65;2.30;;;;;;;;;;4953850;29;20065;-66